Aurora, CO (80018)

2:58 PM MST on December 25, 2014 (GMT -0700)
Thunderbird Estates | Change Station
CLOSE
Current Station
Personal Weather Station
Location: Aurora, CO
Elevation: 5617 ft
Nearby Weather Stations
Active Advisory: Winter Weather Advisory

Elev 5617 ft 39.71 °N, 104.70 °W | Updated 1 minute ago

Light Snow
Light Snow
35.1 °F
Feels Like 30 °F
N
5.3
Wind Variable Wind from NE

Today
High -- | Low -- °F
--% Chance of Precip.
Yesterday
High -- | Low -- °F
Precip. -- in
7:18 AM 4:40 PM
Waxing Crescent, 19% visible
Pressure 29.55 in
Visibility 10.0 miles
Clouds Mostly Cloudy 1500 ft
Overcast 2300 ft
Windchill 30 °F
Dew Point 30 °F
Humidity 82%
Rainfall 0.00 in
Snow Depth Not available.
UV 0 out of 12
Pollen .10 out of 12
Air Quality Not available.
Flu Activity Not available.
SPECI KBKF 252151Z 02010KT 10SM -SN BKN015 OVC023 02/M01 A2955 RMK AO2A

More Conditions Fewer Conditions

Pressure 29.55 in
Visibility 10.0 miles
Clouds Mostly Cloudy 1500 ft
Overcast 2300 ft
Windchill 30 °F
Dew Point 30 °F
Humidity 82%
Rainfall 0.00 in
Snow Depth Not available.
UV 0 out of 12
Pollen .10 out of 12
Air Quality Not available.
Flu Activity Not available.
SPECI KBKF 252151Z 02010KT 10SM -SN BKN015 OVC023 02/M01 A2955 RMK AO2A

More Conditions Fewer Conditions

10-Day Weather Forecast

Almanac

Astronomy

Dec. 25, 2014 Rise Set
Actual Time
Civil Twilight
Nautical Twilight
Astronomical Twilight
Moon
Length of Visible Light
Length of Day
Tomorrow will be .
, % of the Moon is Illuminated

Today's Extremes

State Highs State Lows

Community

WunderPhotos

Upload Photos

1,780,405 photos uploaded!

WunderBlogs® & News

Nearby

Air Quality

  Air Quality AQ Index Pollutant
Not available.

Snow Depth

Station Depth Elevation

Earthquake Activity

City Distance Mag. Time & Date
Minimum magnitude displayed is 2.5.

Coastal Water Temperatures

Place Temperature

Nearby Weather Stations